createdAt,value
2017-07-22T00:00:10.971Z,1011.75
2017-07-22T00:01:10.979Z,1011.71
2017-07-22T00:02:11.032Z,1011.79
2017-07-22T00:03:11.074Z,1011.79
2017-07-22T00:04:11.085Z,1011.73
2017-07-22T00:05:11.124Z,1011.79
2017-07-22T00:06:11.174Z,1011.82
2017-07-22T00:07:11.216Z,1011.77
2017-07-22T00:08:11.250Z,1011.8
2017-07-22T00:09:11.277Z,1011.83
2017-07-22T00:10:11.317Z,1011.87
2017-07-22T00:11:11.354Z,1011.88
2017-07-22T00:12:11.376Z,1011.86
2017-07-22T00:13:11.423Z,1011.86
2017-07-22T00:14:11.460Z,1011.87
2017-07-22T00:15:11.477Z,1011.88
2017-07-22T00:16:11.526Z,1011.85
2017-07-22T00:17:11.568Z,1011.83
2017-07-22T00:18:11.598Z,1011.82
2017-07-22T00:19:11.633Z,1011.82
2017-07-22T00:20:11.672Z,1011.79
2017-07-22T00:21:11.707Z,1011.76
2017-07-22T00:22:11.736Z,1011.79
2017-07-22T00:23:11.775Z,1011.77
2017-07-22T00:24:11.809Z,1011.74
2017-07-22T00:25:11.844Z,1011.73
2017-07-22T00:26:11.875Z,1011.75
2017-07-22T00:27:11.911Z,1011.73
2017-07-22T00:28:11.946Z,1011.71
2017-07-22T00:29:11.983Z,1011.72
2017-07-22T00:30:12.021Z,1011.7
2017-07-22T00:31:12.057Z,1011.68
2017-07-22T00:32:12.088Z,1011.66
2017-07-22T00:33:12.128Z,1011.66
2017-07-22T00:34:12.143Z,1011.66
2017-07-22T00:35:12.186Z,1011.65
2017-07-22T00:36:12.231Z,1011.66
2017-07-22T00:37:12.265Z,1011.63
2017-07-22T00:38:12.281Z,1011.62
2017-07-22T00:39:12.331Z,1011.62
2017-07-22T00:40:12.474Z,1011.63
2017-07-22T00:41:12.405Z,1011.66
2017-07-22T00:42:12.442Z,1011.65
2017-07-22T00:43:12.479Z,1011.63
2017-07-22T00:44:12.511Z,1011.62
2017-07-22T00:45:12.546Z,1011.64
2017-07-22T00:46:12.585Z,1011.62
2017-07-22T00:47:12.617Z,1011.59
2017-07-22T00:48:12.652Z,1011.58
2017-07-22T00:49:12.684Z,1011.62
2017-07-22T00:50:12.721Z,1011.61
2017-07-22T00:51:12.757Z,1011.51
2017-07-22T00:52:12.790Z,1011.54
2017-07-22T00:53:12.824Z,1011.55
2017-07-22T00:54:12.862Z,1011.52
2017-07-22T00:55:12.881Z,1011.52
2017-07-22T00:56:12.932Z,1011.52
2017-07-22T00:57:12.968Z,1011.53
2017-07-22T00:58:13.002Z,1011.53
2017-07-22T00:59:13.024Z,1011.53
2017-07-22T01:00:13.071Z,1011.55
2017-07-22T01:01:13.108Z,1011.57
2017-07-22T01:02:13.144Z,1011.5
2017-07-22T01:03:13.179Z,1011.47
2017-07-22T01:04:13.197Z,1011.44
2017-07-22T01:05:13.243Z,1011.46
2017-07-22T01:06:13.282Z,1011.43
2017-07-22T01:07:13.315Z,1011.42
2017-07-22T01:08:13.361Z,1011.4
2017-07-22T01:09:13.387Z,1011.38
2017-07-22T01:10:13.422Z,1011.41
2017-07-22T01:11:13.452Z,1011.46
2017-07-22T01:12:13.498Z,1011.44
2017-07-22T01:13:13.526Z,1011.49
2017-07-22T01:14:13.563Z,1011.52
2017-07-22T01:15:13.596Z,1011.43
2017-07-22T01:16:13.638Z,1011.43
2017-07-22T01:17:13.662Z,1011.44
2017-07-22T01:18:13.685Z,1011.47
2017-07-22T01:19:13.748Z,1011.47
2017-07-22T01:20:13.769Z,1011.45
2017-07-22T01:21:13.798Z,1011.45
2017-07-22T01:22:13.838Z,1011.45
2017-07-22T01:23:13.874Z,1011.43
2017-07-22T01:24:13.895Z,1011.43
2017-07-22T01:25:13.947Z,1011.46
2017-07-22T01:26:13.984Z,1011.43
2017-07-22T01:27:14.016Z,1011.46
2017-07-22T01:28:14.050Z,1011.44
2017-07-22T01:29:14.086Z,1011.45
2017-07-22T01:30:14.120Z,1011.39
2017-07-22T01:31:14.460Z,1011.46
2017-07-22T01:32:14.186Z,1011.42
2017-07-22T01:33:14.222Z,1011.41
2017-07-22T01:34:14.262Z,1011.45
2017-07-22T01:35:14.296Z,1011.42
2017-07-22T01:36:14.327Z,1011.38
2017-07-22T01:37:14.363Z,1011.4
2017-07-22T01:38:14.403Z,1011.41
2017-07-22T01:39:14.436Z,1011.36
2017-07-22T01:40:14.472Z,1011.34
2017-07-22T01:41:14.501Z,1011.43
2017-07-22T01:42:14.534Z,1011.37
2017-07-22T01:43:14.574Z,1011.39
2017-07-22T01:44:14.604Z,1011.35
2017-07-22T01:45:14.637Z,1011.37
2017-07-22T01:46:14.660Z,1011.33
2017-07-22T01:47:14.694Z,1011.34
2017-07-22T01:48:14.745Z,1011.3
2017-07-22T01:49:14.780Z,1011.3
2017-07-22T01:50:14.818Z,1011.29
2017-07-22T01:51:14.849Z,1011.3
2017-07-22T01:52:14.884Z,1011.25
2017-07-22T01:53:14.922Z,1011.27
2017-07-22T01:54:14.956Z,1011.27
2017-07-22T01:55:14.992Z,1011.22
2017-07-22T01:56:15.027Z,1011.22
2017-07-22T01:57:15.044Z,1011.22
2017-07-22T01:58:15.095Z,1011.2
2017-07-22T01:59:15.131Z,1011.15
2017-07-22T02:00:15.165Z,1011.17
2017-07-22T02:01:15.197Z,1011.14
2017-07-22T02:02:15.233Z,1011.12
2017-07-22T02:03:15.264Z,1011.09
2017-07-22T02:04:15.299Z,1011
2017-07-22T02:05:15.339Z,1011.04
2017-07-22T02:06:15.370Z,1011.05
2017-07-22T02:07:15.404Z,1011.05
2017-07-22T02:08:15.443Z,1011.07
2017-07-22T02:09:15.474Z,1011.05
2017-07-22T02:10:15.507Z,1011.06
2017-07-22T02:11:15.554Z,1011.07
2017-07-22T02:12:15.775Z,1011.06
2017-07-22T02:13:15.619Z,1011.04
2017-07-22T02:14:15.647Z,1011.05
2017-07-22T02:15:15.686Z,1011.08
2017-07-22T02:16:15.719Z,1011.06
2017-07-22T02:17:15.756Z,1011.1
2017-07-22T02:18:15.789Z,1011.09
2017-07-22T02:19:15.820Z,1011.07
2017-07-22T02:20:15.857Z,1011.05
2017-07-22T02:21:15.894Z,1011.12
2017-07-22T02:22:15.911Z,1011.15
2017-07-22T02:23:15.957Z,1011.11
2017-07-22T02:24:15.998Z,1011.13
2017-07-22T02:25:16.029Z,1011.2
2017-07-22T02:26:16.081Z,1011.21
2017-07-22T02:27:16.197Z,1011.25
2017-07-22T02:28:16.116Z,1011.23
2017-07-22T02:29:16.168Z,1011.26
2017-07-22T02:30:16.200Z,1011.27
2017-07-22T02:31:16.238Z,1011.32
2017-07-22T02:32:16.271Z,1011.35
2017-07-22T02:33:16.298Z,1011.32
2017-07-22T02:34:16.340Z,1011.34
2017-07-22T02:35:16.372Z,1011.4
2017-07-22T02:36:16.397Z,1011.39
2017-07-22T02:37:16.444Z,1011.38
2017-07-22T02:38:16.481Z,1011.44
2017-07-22T02:39:16.523Z,1011.38
2017-07-22T02:40:16.547Z,1011.41
2017-07-22T02:41:16.583Z,1011.39
2017-07-22T02:42:16.623Z,1011.4
2017-07-22T02:43:16.652Z,1011.43
2017-07-22T02:44:16.688Z,1011.42
2017-07-22T02:45:16.721Z,1011.46
2017-07-22T02:46:16.757Z,1011.41
2017-07-22T02:47:16.791Z,1011.41
2017-07-22T02:48:16.825Z,1011.41
2017-07-22T02:49:16.860Z,1011.38
2017-07-22T02:50:16.898Z,1011.41
2017-07-22T02:51:16.925Z,1011.42
2017-07-22T02:52:16.967Z,1011.51
2017-07-22T02:53:17.000Z,1011.49
2017-07-22T02:54:17.033Z,1011.47
2017-07-22T02:55:17.066Z,1011.48
2017-07-22T02:56:17.100Z,1011.45
2017-07-22T02:57:17.144Z,1011.47
2017-07-22T02:58:17.172Z,1011.5
2017-07-22T02:59:17.199Z,1011.45
2017-07-22T03:00:17.239Z,1011.43
2017-07-22T03:01:17.277Z,1011.41
2017-07-22T03:02:17.305Z,1011.42
2017-07-22T03:03:17.342Z,1011.37
2017-07-22T03:04:17.385Z,1011.4
2017-07-22T03:05:17.411Z,1011.35
2017-07-22T03:06:17.450Z,1011.39
2017-07-22T03:07:17.484Z,1011.38
2017-07-22T03:08:17.521Z,1011.33
2017-07-22T03:09:17.552Z,1011.36
2017-07-22T03:10:17.586Z,1011.38
2017-07-22T03:11:17.621Z,1011.33
2017-07-22T03:12:17.658Z,1011.33
2017-07-22T03:13:17.686Z,1011.4
2017-07-22T03:14:17.704Z,1011.38
2017-07-22T03:15:17.757Z,1011.38
2017-07-22T03:16:17.792Z,1011.32
2017-07-22T03:17:17.820Z,1011.28
2017-07-22T03:18:17.865Z,1011.35
2017-07-22T03:19:17.897Z,1011.26
2017-07-22T03:20:17.919Z,1011.28
2017-07-22T03:21:17.964Z,1011.26
2017-07-22T03:22:17.997Z,1011.21
2017-07-22T03:23:18.017Z,1011.19
2017-07-22T03:24:18.070Z,1011.21
2017-07-22T03:25:18.101Z,1011.24
2017-07-22T03:26:18.142Z,1011.18
2017-07-22T03:27:18.171Z,1011.18
2017-07-22T03:28:18.209Z,1011.23
2017-07-22T03:29:18.247Z,1011.25
2017-07-22T03:30:18.278Z,1011.17
2017-07-22T03:31:18.311Z,1011.18
2017-07-22T03:32:18.347Z,1011.16
2017-07-22T03:33:18.380Z,1011.15
2017-07-22T03:34:18.415Z,1011.17
2017-07-22T03:35:18.446Z,1011.15
2017-07-22T03:36:18.485Z,1011.19
2017-07-22T03:37:18.521Z,1011.19
2017-07-22T03:38:18.554Z,1011.19
2017-07-22T03:39:18.585Z,1011.19
2017-07-22T03:40:18.623Z,1011.2
2017-07-22T03:41:18.657Z,1011.19
2017-07-22T03:42:18.668Z,1011.2
2017-07-22T03:43:18.705Z,1011.18
2017-07-22T03:44:18.755Z,1011.23
2017-07-22T03:45:18.796Z,1011.23
2017-07-22T03:46:18.824Z,1011.19
2017-07-22T03:47:18.865Z,1011.22
2017-07-22T03:48:18.895Z,1011.19
2017-07-22T03:49:18.911Z,1011.2
2017-07-22T03:50:18.964Z,1011.14
2017-07-22T03:51:19.004Z,1011.18
2017-07-22T03:52:19.035Z,1011.14
2017-07-22T03:53:19.067Z,1011.09
2017-07-22T03:54:19.093Z,1011.07
2017-07-22T03:55:19.138Z,1011.1
2017-07-22T03:56:19.170Z,1011.01
2017-07-22T03:57:19.208Z,1011.04
2017-07-22T03:58:19.239Z,1011.04
2017-07-22T03:59:19.278Z,1011.05
2017-07-22T04:02:28.118Z,1011.06
2017-07-22T04:03:28.157Z,1011.08
2017-07-22T04:04:28.184Z,1011.14
2017-07-22T04:05:28.221Z,1011.11
2017-07-22T04:06:28.256Z,1011.09
2017-07-22T04:07:28.288Z,1011.12
2017-07-22T04:08:28.322Z,1011.12
2017-07-22T04:09:28.359Z,1011.15
2017-07-22T04:10:28.389Z,1011.15
2017-07-22T04:11:28.423Z,1011.16
2017-07-22T04:12:28.473Z,1011.16
2017-07-22T04:13:28.497Z,1011.11
2017-07-22T04:14:28.518Z,1011.15
2017-07-22T04:15:28.565Z,1011.2
2017-07-22T04:16:28.587Z,1011.13
2017-07-22T04:17:28.634Z,1011.18
2017-07-22T04:18:28.667Z,1011.14
2017-07-22T04:19:28.704Z,1011.22
2017-07-22T04:20:28.743Z,1011.18
2017-07-22T04:21:28.772Z,1011.24
2017-07-22T04:22:28.814Z,1011.33
2017-07-22T04:23:28.832Z,1011.36
2017-07-22T04:24:28.885Z,1011.37
2017-07-22T04:25:28.916Z,1011.29
2017-07-22T04:26:28.952Z,1011.35
2017-07-22T04:27:28.987Z,1011.34
2017-07-22T04:28:29.019Z,1011.4
2017-07-22T04:29:29.055Z,1011.35
2017-07-22T04:30:29.088Z,1011.42
2017-07-22T04:31:29.124Z,1011.34
2017-07-22T04:32:29.158Z,1011.36
2017-07-22T04:33:29.214Z,1011.38
2017-07-22T04:34:29.228Z,1011.34
2017-07-22T04:35:29.267Z,1011.4
2017-07-22T04:36:29.299Z,1011.36
2017-07-22T04:37:29.338Z,1011.34
2017-07-22T04:38:29.373Z,1011.31
2017-07-22T04:39:29.409Z,1011.31
2017-07-22T04:40:29.442Z,1011.35
2017-07-22T04:41:29.477Z,1011.38
2017-07-22T04:42:29.519Z,1011.38
2017-07-22T04:43:29.550Z,1011.43
2017-07-22T04:44:29.587Z,1011.49
2017-07-22T04:45:29.624Z,1011.47
2017-07-22T04:46:29.658Z,1011.46
2017-07-22T04:47:29.693Z,1011.44
2017-07-22T04:48:29.719Z,1011.41
2017-07-22T04:49:29.766Z,1011.38
2017-07-22T04:50:29.809Z,1011.38
2017-07-22T04:51:29.840Z,1011.4
2017-07-22T04:52:29.876Z,1011.41
2017-07-22T04:53:29.910Z,1011.4
2017-07-22T04:54:29.947Z,1011.42
2017-07-22T04:55:29.975Z,1011.46
2017-07-22T04:56:30.017Z,1011.46
2017-07-22T04:57:30.056Z,1011.5
2017-07-22T04:58:30.092Z,1011.55
2017-07-22T04:59:30.125Z,1011.56
2017-07-22T05:00:30.151Z,1011.58
2017-07-22T05:01:30.215Z,1011.58
2017-07-22T05:02:30.220Z,1011.57
2017-07-22T05:03:30.270Z,1011.63
2017-07-22T05:04:30.306Z,1011.52
2017-07-22T05:05:30.343Z,1011.54
2017-07-22T05:06:30.376Z,1011.53
2017-07-22T05:07:30.412Z,1011.51
2017-07-22T05:08:30.453Z,1011.52
2017-07-22T05:09:30.463Z,1011.58
2017-07-22T05:10:30.518Z,1011.56
2017-07-22T05:11:30.556Z,1011.61
2017-07-22T05:12:30.590Z,1011.54
2017-07-22T05:13:30.609Z,1011.56
2017-07-22T05:14:30.660Z,1011.63
2017-07-22T05:15:30.700Z,1011.63
2017-07-22T05:16:30.720Z,1011.63
2017-07-22T05:17:30.770Z,1011.66
2017-07-22T05:18:30.808Z,1011.58
2017-07-22T05:19:30.841Z,1011.59
2017-07-22T05:20:30.882Z,1011.63
2017-07-22T05:21:30.914Z,1011.6
2017-07-22T05:22:30.953Z,1011.61
2017-07-22T05:23:30.983Z,1011.51
2017-07-22T05:24:31.020Z,1011.52
2017-07-22T05:25:31.059Z,1011.53
2017-07-22T05:26:31.095Z,1011.63
2017-07-22T05:27:31.137Z,1011.67
2017-07-22T05:28:31.166Z,1011.67
2017-07-22T05:29:31.204Z,1011.7
2017-07-22T05:30:31.237Z,1011.64
2017-07-22T05:31:31.274Z,1011.63
2017-07-22T05:32:31.290Z,1011.57
2017-07-22T05:33:31.345Z,1011.52
2017-07-22T05:34:31.382Z,1011.52
2017-07-22T05:35:31.424Z,1011.55
2017-07-22T05:36:31.450Z,1011.59
2017-07-22T05:37:31.492Z,1011.52
2017-07-22T05:38:31.531Z,1011.57
2017-07-22T05:39:31.562Z,1011.56
2017-07-22T05:40:31.604Z,1011.56
2017-07-22T05:41:31.637Z,1011.57
2017-07-22T05:42:31.675Z,1011.66
2017-07-22T05:43:31.709Z,1011.55
2017-07-22T05:44:31.753Z,1011.55
2017-07-22T05:45:31.765Z,1011.48
2017-07-22T05:46:31.821Z,1011.55
2017-07-22T05:47:31.843Z,1011.57
2017-07-22T05:48:31.890Z,1011.55
2017-07-22T05:49:31.925Z,1011.57
2017-07-22T05:50:31.962Z,1011.54
2017-07-22T05:51:31.983Z,1011.53
2017-07-22T05:52:32.058Z,1011.46
2017-07-22T05:53:32.075Z,1011.54
2017-07-22T05:54:32.108Z,1011.55
2017-07-22T05:55:32.138Z,1011.61
2017-07-22T05:56:32.188Z,1011.62
2017-07-22T05:57:32.227Z,1011.66
2017-07-22T05:58:32.262Z,1011.7
2017-07-22T05:59:32.279Z,1011.72
2017-07-22T06:00:32.332Z,1011.67
2017-07-22T06:01:32.366Z,1011.69
2017-07-22T06:02:32.412Z,1011.7
2017-07-22T06:03:32.446Z,1011.68
2017-07-22T06:04:32.484Z,1011.68
2017-07-22T06:05:32.520Z,1011.66
2017-07-22T06:06:32.558Z,1011.63
2017-07-22T06:07:32.592Z,1011.76
2017-07-22T06:08:32.636Z,1011.65
2017-07-22T06:09:32.650Z,1011.67
2017-07-22T06:10:32.705Z,1011.74
2017-07-22T06:11:32.748Z,1011.64
2017-07-22T06:12:32.774Z,1011.71
2017-07-22T06:13:32.817Z,1011.76
2017-07-22T06:14:32.862Z,1011.72
2017-07-22T06:15:32.894Z,1011.75
2017-07-22T06:16:32.931Z,1011.76
2017-07-22T06:17:32.969Z,1011.74
2017-07-22T06:18:33.005Z,1011.72
2017-07-22T06:19:33.041Z,1011.69
2017-07-22T06:20:33.075Z,1011.7
2017-07-22T06:21:33.111Z,1011.71
2017-07-22T06:22:33.131Z,1011.61
2017-07-22T06:23:33.185Z,1011.62
2017-07-22T06:24:33.229Z,1011.64
2017-07-22T06:25:33.363Z,1011.58
2017-07-22T06:26:33.307Z,1011.61
2017-07-22T06:27:33.338Z,1011.58
2017-07-22T06:28:33.379Z,1011.65
2017-07-22T06:29:33.409Z,1011.64
2017-07-22T06:30:33.449Z,1011.64
2017-07-22T06:31:33.487Z,1011.67
2017-07-22T06:32:33.519Z,1011.65
2017-07-22T06:33:33.556Z,1011.69
2017-07-22T06:34:33.584Z,1011.65
2017-07-22T06:35:33.634Z,1011.56
2017-07-22T06:36:33.678Z,1011.61
2017-07-22T06:37:33.708Z,1011.64
2017-07-22T06:38:33.745Z,1011.64
2017-07-22T06:39:33.779Z,1011.71
2017-07-22T06:40:33.820Z,1011.7
2017-07-22T06:41:33.853Z,1011.68
2017-07-22T06:42:33.870Z,1011.85
2017-07-22T06:43:33.909Z,1011.75
2017-07-22T06:44:33.969Z,1011.72
2017-07-22T06:45:33.982Z,1011.75
2017-07-22T06:46:34.029Z,1011.72
2017-07-22T06:47:34.078Z,1011.7
2017-07-22T06:48:34.114Z,1011.8
2017-07-22T06:49:34.156Z,1011.68
2017-07-22T06:50:34.184Z,1011.68
2017-07-22T06:51:34.223Z,1011.61
2017-07-22T06:52:34.260Z,1011.77
2017-07-22T06:53:34.277Z,1011.65
2017-07-22T06:54:34.336Z,1011.67
2017-07-22T06:55:34.373Z,1011.72
2017-07-22T06:56:34.391Z,1011.63
2017-07-22T06:57:34.452Z,1011.61
2017-07-22T06:58:34.490Z,1011.59
2017-07-22T06:59:34.521Z,1011.6
2017-07-22T07:00:34.544Z,1011.61
2017-07-22T07:01:34.582Z,1011.7
2017-07-22T07:02:34.633Z,1011.71
2017-07-22T07:03:34.675Z,1011.65
2017-07-22T07:04:34.716Z,1011.64
2017-07-22T07:05:34.751Z,1011.62
2017-07-22T07:06:34.770Z,1011.67
2017-07-22T07:07:34.824Z,1011.69
2017-07-22T07:08:34.865Z,1011.71
2017-07-22T07:09:34.906Z,1011.7
2017-07-22T07:10:34.944Z,1011.71
2017-07-22T07:11:34.980Z,1011.82
2017-07-22T07:12:35.013Z,1011.69
2017-07-22T07:13:35.054Z,1011.73
2017-07-22T07:14:35.073Z,1011.75
2017-07-22T07:15:35.127Z,1011.73
2017-07-22T07:16:35.168Z,1011.7
2017-07-22T07:17:35.205Z,1011.77
2017-07-22T07:18:35.245Z,1011.73
2017-07-22T07:19:35.281Z,1011.7
2017-07-22T07:20:35.324Z,1011.68
2017-07-22T07:21:35.360Z,1011.67
2017-07-22T07:22:35.384Z,1011.67
2017-07-22T07:23:35.441Z,1011.63
2017-07-22T07:24:35.478Z,1011.59
2017-07-22T07:25:35.510Z,1011.6
2017-07-22T07:26:35.553Z,1011.6
2017-07-22T07:27:35.589Z,1011.59
2017-07-22T07:28:35.627Z,1011.62
2017-07-22T07:29:35.669Z,1011.62
2017-07-22T07:30:35.704Z,1011.61
2017-07-22T07:31:35.740Z,1011.57
2017-07-22T07:32:35.787Z,1011.69
2017-07-22T07:33:35.821Z,1011.7
2017-07-22T07:34:35.861Z,1011.58
2017-07-22T07:35:35.886Z,1011.59
2017-07-22T07:36:35.934Z,1011.55
2017-07-22T07:37:35.979Z,1011.55
2017-07-22T07:38:36.009Z,1011.61
2017-07-22T07:39:36.054Z,1011.56
2017-07-22T07:40:36.089Z,1011.57
2017-07-22T07:41:36.108Z,1011.51
2017-07-22T07:42:36.162Z,1011.63
2017-07-22T07:43:36.184Z,1011.58
2017-07-22T07:44:36.243Z,1011.53
2017-07-22T07:45:36.278Z,1011.5
2017-07-22T07:46:36.317Z,1011.74
2017-07-22T07:47:36.334Z,1011.63
2017-07-22T07:48:36.392Z,1011.52
2017-07-22T07:49:36.437Z,1011.59
2017-07-22T07:50:36.476Z,1011.52
2017-07-22T07:51:36.515Z,1011.57
2017-07-22T07:52:36.553Z,1011.81
2017-07-22T07:53:36.592Z,1011.6
2017-07-22T07:54:36.627Z,1011.84
2017-07-22T07:55:36.666Z,1011.8
2017-07-22T07:56:36.710Z,1011.49
2017-07-22T07:57:36.747Z,1011.88
2017-07-22T07:58:36.791Z,1011.87
2017-07-22T07:59:36.826Z,1011.59
2017-07-22T08:00:36.857Z,1011.59
2017-07-22T08:01:36.911Z,1011.66
2017-07-22T08:02:36.949Z,1011.48
2017-07-22T08:03:36.972Z,1011.43
2017-07-22T08:04:37.031Z,1011.5
2017-07-22T08:05:37.073Z,1011.42
2017-07-22T08:06:37.114Z,1011.46
2017-07-22T08:07:37.153Z,1011.51
2017-07-22T08:08:37.196Z,1011.47
2017-07-22T08:09:37.234Z,1011.42
2017-07-22T08:10:37.275Z,1011.45
2017-07-22T08:11:37.316Z,1011.32
2017-07-22T08:12:37.357Z,1011.32
2017-07-22T08:13:37.392Z,1011.33
2017-07-22T08:14:37.434Z,1011.32
2017-07-22T08:15:37.481Z,1011.34
2017-07-22T08:16:37.514Z,1011.31
2017-07-22T08:17:37.555Z,1011.28
2017-07-22T08:18:37.577Z,1011.24
2017-07-22T08:19:37.636Z,1011.3
2017-07-22T08:20:37.675Z,1011.28
2017-07-22T08:21:37.714Z,1011.31
2017-07-22T08:22:37.754Z,1011.27
2017-07-22T08:23:37.789Z,1011.31
2017-07-22T08:24:37.834Z,1011.27
2017-07-22T08:25:37.877Z,1011.25
2017-07-22T08:26:37.912Z,1011.26
2017-07-22T08:27:37.932Z,1011.29
2017-07-22T08:28:37.997Z,1011.3
2017-07-22T08:29:38.040Z,1011.32
2017-07-22T08:30:38.074Z,1011.34
2017-07-22T08:31:38.098Z,1011.38
2017-07-22T08:32:38.150Z,1011.47
2017-07-22T08:33:38.193Z,1011.19
2017-07-22T08:34:38.235Z,1011.18
2017-07-22T08:35:38.270Z,1011.3
2017-07-22T08:36:38.306Z,1011.2
2017-07-22T08:37:38.351Z,1011.2
2017-07-22T08:38:38.376Z,1011.23
2017-07-22T08:39:38.428Z,1011.22
2017-07-22T08:40:38.469Z,1011.16
2017-07-22T08:41:38.503Z,1011.1
2017-07-22T08:42:38.543Z,1011.13
2017-07-22T08:43:38.587Z,1011.16
2017-07-22T08:44:38.621Z,1011.14
2017-07-22T08:45:38.665Z,1011.11
2017-07-22T08:46:38.681Z,1011.08
2017-07-22T08:47:38.743Z,1011.07
2017-07-22T08:48:38.783Z,1011.05
2017-07-22T08:49:38.825Z,1010.99
2017-07-22T08:50:38.858Z,1011.02
2017-07-22T08:51:38.881Z,1010.95
2017-07-22T08:52:38.936Z,1010.97
2017-07-22T08:53:38.980Z,1010.87
2017-07-22T08:54:39.020Z,1011.02
2017-07-22T08:55:39.057Z,1010.98
2017-07-22T08:56:39.097Z,1011.05
2017-07-22T08:57:39.117Z,1011
2017-07-22T08:58:39.178Z,1010.98
2017-07-22T08:59:39.196Z,1010.98
2017-07-22T09:00:39.256Z,1010.97
2017-07-22T09:01:39.312Z,1010.91
2017-07-22T09:02:39.334Z,1010.93
2017-07-22T09:03:39.369Z,1010.91
2017-07-22T09:04:39.411Z,1010.87
2017-07-22T09:05:39.451Z,1010.91
2017-07-22T09:06:39.485Z,1010.9
2017-07-22T09:07:39.530Z,1010.93
2017-07-22T09:08:39.568Z,1010.89
2017-07-22T09:09:39.606Z,1010.9
2017-07-22T09:10:39.648Z,1010.91
2017-07-22T09:11:39.677Z,1010.96
2017-07-22T09:12:39.710Z,1010.91
2017-07-22T09:13:39.764Z,1010.88
2017-07-22T09:14:39.798Z,1010.84
2017-07-22T09:15:39.839Z,1010.8
2017-07-22T09:16:39.880Z,1010.84
2017-07-22T09:17:39.914Z,1010.82
2017-07-22T09:18:39.955Z,1010.88
2017-07-22T09:19:39.998Z,1010.94
2017-07-22T09:20:40.037Z,1010.87
2017-07-22T09:21:40.075Z,1010.9
2017-07-22T09:22:40.093Z,1010.88
2017-07-22T09:23:40.150Z,1010.9
2017-07-22T09:24:40.192Z,1010.91
2017-07-22T09:25:40.229Z,1010.92
2017-07-22T09:26:40.269Z,1010.95
2017-07-22T09:27:40.311Z,1010.94
2017-07-22T09:28:40.345Z,1010.94
2017-07-22T09:29:40.388Z,1010.96
2017-07-22T09:30:40.407Z,1010.94
2017-07-22T09:31:40.464Z,1010.92
2017-07-22T09:32:40.504Z,1010.97
2017-07-22T09:33:40.542Z,1010.97
2017-07-22T09:34:40.581Z,1010.91
2017-07-22T09:35:40.607Z,1011
2017-07-22T09:36:40.657Z,1011.02
2017-07-22T09:37:40.701Z,1010.95
2017-07-22T09:38:40.727Z,1010.98
2017-07-22T09:39:40.776Z,1010.98
2017-07-22T09:40:40.816Z,1011.02
2017-07-22T09:41:40.858Z,1011.05
2017-07-22T09:42:40.898Z,1011.06
2017-07-22T09:43:40.933Z,1011.05
2017-07-22T09:44:40.974Z,1011.06
2017-07-22T09:45:41.011Z,1011.05
2017-07-22T09:46:41.032Z,1011.02
2017-07-22T09:47:41.094Z,1011.01
2017-07-22T09:48:41.131Z,1010.99
2017-07-22T09:49:41.166Z,1011.04
2017-07-22T09:50:41.212Z,1010.98
2017-07-22T09:51:41.249Z,1010.98
2017-07-22T09:52:41.282Z,1010.93
2017-07-22T09:53:41.333Z,1010.98
2017-07-22T09:54:41.369Z,1010.99
2017-07-22T09:55:41.404Z,1011
2017-07-22T09:56:41.447Z,1011.01
2017-07-22T09:57:41.485Z,1011.05
2017-07-22T09:58:41.524Z,1011.03
2017-07-22T09:59:41.560Z,1011.13
2017-07-22T10:00:41.603Z,1011.1
2017-07-22T10:01:41.641Z,1011.06
2017-07-22T10:02:41.681Z,1011.05
2017-07-22T10:03:41.705Z,1011.02
2017-07-22T10:04:41.760Z,1011.07
2017-07-22T10:05:41.806Z,1011.06
2017-07-22T10:06:41.842Z,1011
2017-07-22T10:07:41.881Z,1011.02
2017-07-22T10:08:41.924Z,1010.99
2017-07-22T10:09:41.960Z,1011.04
2017-07-22T10:10:42.002Z,1011.08
2017-07-22T10:11:42.038Z,1010.92
2017-07-22T10:12:42.080Z,1010.92
2017-07-22T10:13:42.102Z,1010.95
2017-07-22T10:14:42.145Z,1010.91
2017-07-22T10:15:42.201Z,1011.04
2017-07-22T10:16:42.242Z,1010.97
2017-07-22T10:17:42.276Z,1010.93
2017-07-22T10:18:42.322Z,1011
2017-07-22T10:19:42.360Z,1010.94
2017-07-22T10:20:42.402Z,1011.02
2017-07-22T10:21:42.442Z,1011.01
2017-07-22T10:22:42.485Z,1011.76
2017-07-22T10:23:42.517Z,1011.25
2017-07-22T10:24:42.564Z,1012.13
2017-07-22T10:25:42.605Z,1011.94
2017-07-22T10:26:42.643Z,1011.93
2017-07-22T10:27:42.685Z,1011.87
2017-07-22T10:28:42.723Z,1012.03
2017-07-22T10:29:42.772Z,1011.91
2017-07-22T10:30:42.811Z,1011.79
2017-07-22T10:31:42.837Z,1011.75
2017-07-22T10:32:42.894Z,1012.01
2017-07-22T10:33:42.933Z,1011.98
2017-07-22T10:34:42.979Z,1012.04
2017-07-22T10:35:43.030Z,1011.88
2017-07-22T10:36:43.067Z,1011.64
2017-07-22T10:37:43.104Z,1011.57
2017-07-22T10:38:43.147Z,1011.39
2017-07-22T10:39:43.193Z,1011.51
2017-07-22T10:40:43.212Z,1011.39
2017-07-22T10:41:43.276Z,1010.91
2017-07-22T10:42:43.321Z,1011.2
2017-07-22T10:43:43.358Z,1011.6
2017-07-22T10:44:43.404Z,1011.09
2017-07-22T10:45:43.447Z,1010.74
2017-07-22T10:46:43.484Z,1010.88
2017-07-22T10:47:43.529Z,1011.01
2017-07-22T10:48:43.571Z,1011.12
2017-07-22T10:49:43.613Z,1010.67
2017-07-22T10:50:43.652Z,1010.9
2017-07-22T10:51:43.699Z,1010.68
2017-07-22T10:52:43.735Z,1010.75
2017-07-22T10:53:43.778Z,1010.94
2017-07-22T10:54:43.824Z,1010.65
2017-07-22T10:55:43.870Z,1010.69
2017-07-22T10:56:43.903Z,1010.56
2017-07-22T10:57:43.947Z,1010.72
2017-07-22T10:58:43.993Z,1011.09
2017-07-22T10:59:44.030Z,1010.91
2017-07-22T11:00:44.065Z,1010.72
2017-07-22T11:01:44.107Z,1010.65
2017-07-22T11:02:44.150Z,1010.6
2017-07-22T11:03:44.192Z,1010.59
2017-07-22T11:04:44.231Z,1010.54
2017-07-22T11:05:44.262Z,1010.58
2017-07-22T11:06:44.317Z,1010.58
2017-07-22T11:07:44.349Z,1010.6
2017-07-22T11:08:44.397Z,1010.6
2017-07-22T11:09:44.432Z,1010.57
2017-07-22T11:10:44.475Z,1010.54
2017-07-22T11:11:44.519Z,1010.64
2017-07-22T11:12:44.559Z,1010.69
2017-07-22T11:13:44.596Z,1010.64
2017-07-22T11:14:44.624Z,1010.59
2017-07-22T11:15:44.683Z,1010.52
2017-07-22T11:16:44.716Z,1010.45
2017-07-22T11:17:44.765Z,1010.42
2017-07-22T11:18:44.821Z,1010.39
2017-07-22T11:19:44.821Z,1010.4
2017-07-22T11:20:44.885Z,1010.39
2017-07-22T11:21:44.920Z,1010.37
2017-07-22T11:22:44.964Z,1010.4
2017-07-22T11:23:45.001Z,1010.36
2017-07-22T11:24:45.041Z,1010.37
2017-07-22T11:25:45.082Z,1010.34
2017-07-22T11:26:45.124Z,1010.43
2017-07-22T11:27:45.163Z,1010.47
2017-07-22T11:28:45.203Z,1010.47
2017-07-22T11:29:45.236Z,1010.36
2017-07-22T11:30:45.284Z,1010.33
2017-07-22T11:31:45.327Z,1010.33
2017-07-22T11:32:45.365Z,1010.35
2017-07-22T11:33:45.404Z,1010.32
2017-07-22T11:34:45.448Z,1010.35
2017-07-22T11:35:45.482Z,1010.31
2017-07-22T11:36:45.525Z,1010.33
2017-07-22T11:37:45.566Z,1010.29
2017-07-22T11:38:45.606Z,1010.31
2017-07-22T11:39:45.651Z,1010.39
2017-07-22T11:40:45.684Z,1010.31
2017-07-22T11:41:45.723Z,1010.28
2017-07-22T11:42:45.766Z,1010.23
2017-07-22T11:43:45.804Z,1010.16
2017-07-22T11:44:45.846Z,1010.17
2017-07-22T11:45:45.887Z,1010.12
2017-07-22T11:46:45.923Z,1010.08
2017-07-22T11:47:45.963Z,1010.06
2017-07-22T11:48:46.006Z,1009.96
2017-07-22T11:49:46.040Z,1009.94
2017-07-22T11:50:46.085Z,1009.87
2017-07-22T11:51:46.125Z,1009.91
2017-07-22T11:52:46.170Z,1009.91
2017-07-22T11:53:46.201Z,1009.91
2017-07-22T11:54:46.243Z,1009.92
2017-07-22T11:55:46.281Z,1009.87
2017-07-22T11:56:46.322Z,1009.94
2017-07-22T11:57:46.358Z,1009.93
2017-07-22T11:58:46.400Z,1009.84
2017-07-22T11:59:46.445Z,1009.81
2017-07-22T12:00:46.484Z,1009.8
2017-07-22T12:01:46.525Z,1009.79
2017-07-22T12:02:46.561Z,1009.76
2017-07-22T12:03:46.601Z,1009.69
2017-07-22T12:04:46.646Z,1009.71
2017-07-22T12:05:46.666Z,1009.69
2017-07-22T12:06:46.720Z,1009.74
2017-07-22T12:07:46.762Z,1009.73
2017-07-22T12:08:46.796Z,1009.71
2017-07-22T12:09:46.835Z,1009.67
2017-07-22T12:10:46.863Z,1009.69